sensor_id;sensor_type;location;lat;lon;timestamp;temperature;humidity
8231;DHT22;4156;50.908;6.974;2023-08-07T00:01:07;15.70;99.90
8231;DHT22;4156;50.908;6.974;2023-08-07T00:03:33;15.60;99.90
8231;DHT22;4156;50.908;6.974;2023-08-07T00:05:58;15.60;99.90
8231;DHT22;4156;50.908;6.974;2023-08-07T00:08:24;15.60;99.90
8231;DHT22;4156;50.908;6.974;2023-08-07T00:10:49;15.60;99.90
8231;DHT22;4156;50.908;6.974;2023-08-07T00:13:15;15.60;99.90
8231;DHT22;4156;50.908;6.974;2023-08-07T00:15:40;15.60;99.90
8231;DHT22;4156;50.908;6.974;2023-08-07T00:18:06;15.50;99.90
8231;DHT22;4156;50.908;6.974;2023-08-07T00:20:31;15.50;99.90
8231;DHT22;4156;50.908;6.974;2023-08-07T00:22:57;15.50;99.90
8231;DHT22;4156;50.908;6.974;2023-08-07T00:25:22;15.50;99.90
8231;DHT22;4156;50.908;6.974;2023-08-07T00:27:49;15.40;99.90
8231;DHT22;4156;50.908;6.974;2023-08-07T00:30:14;15.40;99.90
8231;DHT22;4156;50.908;6.974;2023-08-07T00:32:40;15.50;99.90
8231;DHT22;4156;50.908;6.974;2023-08-07T00:35:05;15.40;99.90
8231;DHT22;4156;50.908;6.974;2023-08-07T00:37:33;15.40;99.90
8231;DHT22;4156;50.908;6.974;2023-08-07T00:39:59;15.40;99.90
8231;DHT22;4156;50.908;6.974;2023-08-07T00:42:24;15.40;99.90
8231;DHT22;4156;50.908;6.974;2023-08-07T00:44:50;15.40;99.90
8231;DHT22;4156;50.908;6.974;2023-08-07T00:47:15;15.40;99.90
8231;DHT22;4156;50.908;6.974;2023-08-07T00:49:41;15.40;99.90
8231;DHT22;4156;50.908;6.974;2023-08-07T00:52:07;15.40;99.90
8231;DHT22;4156;50.908;6.974;2023-08-07T00:54:33;15.30;99.90
8231;DHT22;4156;50.908;6.974;2023-08-07T00:57:13;15.40;99.90
8231;DHT22;4156;50.908;6.974;2023-08-07T00:59:42;15.30;99.90
8231;DHT22;4156;50.908;6.974;2023-08-07T01:02:09;15.30;99.90
8231;DHT22;4156;50.908;6.974;2023-08-07T01:04:35;15.30;99.90
8231;DHT22;4156;50.908;6.974;2023-08-07T01:07:00;15.30;99.90
8231;DHT22;4156;50.908;6.974;2023-08-07T01:09:26;15.20;99.90
8231;DHT22;4156;50.908;6.974;2023-08-07T01:12:21;15.30;99.90
8231;DHT22;4156;50.908;6.974;2023-08-07T01:17:49;15.30;99.90
8231;DHT22;4156;50.908;6.974;2023-08-07T01:20:16;15.20;99.90
8231;DHT22;4156;50.908;6.974;2023-08-07T01:22:42;15.20;99.90
8231;DHT22;4156;50.908;6.974;2023-08-07T01:25:07;15.20;99.90
8231;DHT22;4156;50.908;6.974;2023-08-07T01:28:02;15.20;99.90
8231;DHT22;4156;50.908;6.974;2023-08-07T01:30:35;15.20;99.90
8231;DHT22;4156;50.908;6.974;2023-08-07T01:33:17;15.20;99.90
8231;DHT22;4156;50.908;6.974;2023-08-07T01:35:52;15.20;99.90
8231;DHT22;4156;50.908;6.974;2023-08-07T01:38:19;15.20;99.90
8231;DHT22;4156;50.908;6.974;2023-08-07T01:40:46;15.20;99.90
8231;DHT22;4156;50.908;6.974;2023-08-07T01:43:12;15.20;99.90
8231;DHT22;4156;50.908;6.974;2023-08-07T01:45:38;15.20;99.90
8231;DHT22;4156;50.908;6.974;2023-08-07T01:48:03;15.20;99.90
8231;DHT22;4156;50.908;6.974;2023-08-07T01:50:30;15.20;99.90
8231;DHT22;4156;50.908;6.974;2023-08-07T01:52:56;15.20;99.90
8231;DHT22;4156;50.908;6.974;2023-08-07T01:55:22;15.30;99.90
8231;DHT22;4156;50.908;6.974;2023-08-07T01:57:48;15.30;99.90
8231;DHT22;4156;50.908;6.974;2023-08-07T02:00:14;15.30;99.90
8231;DHT22;4156;50.908;6.974;2023-08-07T02:02:39;15.30;99.90
8231;DHT22;4156;50.908;6.974;2023-08-07T02:05:05;15.30;99.90
8231;DHT22;4156;50.908;6.974;2023-08-07T02:07:31;15.30;99.90
8231;DHT22;4156;50.908;6.974;2023-08-07T02:09:57;15.30;99.90
8231;DHT22;4156;50.908;6.974;2023-08-07T02:12:23;15.30;99.90
8231;DHT22;4156;50.908;6.974;2023-08-07T02:14:49;15.30;99.90
8231;DHT22;4156;50.908;6.974;2023-08-07T02:17:15;15.30;99.90
8231;DHT22;4156;50.908;6.974;2023-08-07T02:19:40;15.30;99.90
8231;DHT22;4156;50.908;6.974;2023-08-07T02:22:06;15.30;99.90
8231;DHT22;4156;50.908;6.974;2023-08-07T02:24:32;15.30;99.90
8231;DHT22;4156;50.908;6.974;2023-08-07T02:26:57;15.30;99.90
8231;DHT22;4156;50.908;6.974;2023-08-07T02:29:23;15.30;99.90
8231;DHT22;4156;50.908;6.974;2023-08-07T02:31:50;15.30;99.90
8231;DHT22;4156;50.908;6.974;2023-08-07T02:34:15;15.30;99.90
8231;DHT22;4156;50.908;6.974;2023-08-07T02:36:41;15.30;99.90
8231;DHT22;4156;50.908;6.974;2023-08-07T02:39:07;15.30;99.90
8231;DHT22;4156;50.908;6.974;2023-08-07T02:41:32;15.30;99.90
8231;DHT22;4156;50.908;6.974;2023-08-07T02:43:58;15.30;99.90
8231;DHT22;4156;50.908;6.974;2023-08-07T02:46:23;15.20;99.90
8231;DHT22;4156;50.908;6.974;2023-08-07T02:48:49;15.30;99.90
8231;DHT22;4156;50.908;6.974;2023-08-07T02:51:15;15.30;99.90
8231;DHT22;4156;50.908;6.974;2023-08-07T02:53:40;15.30;99.90
8231;DHT22;4156;50.908;6.974;2023-08-07T02:56:06;15.30;99.90
8231;DHT22;4156;50.908;6.974;2023-08-07T02:58:31;15.20;99.90
8231;DHT22;4156;50.908;6.974;2023-08-07T03:01:02;15.20;99.90
8231;DHT22;4156;50.908;6.974;2023-08-07T03:03:27;15.20;99.90
8231;DHT22;4156;50.908;6.974;2023-08-07T03:05:53;15.20;99.90
8231;DHT22;4156;50.908;6.974;2023-08-07T03:08:18;14.80;99.90
8231;DHT22;4156;50.908;6.974;2023-08-07T03:10:54;15.20;99.90
8231;DHT22;4156;50.908;6.974;2023-08-07T03:13:24;15.10;99.90
8231;DHT22;4156;50.908;6.974;2023-08-07T03:15:50;15.20;99.90
8231;DHT22;4156;50.908;6.974;2023-08-07T03:18:23;15.10;99.90
8231;DHT22;4156;50.908;6.974;2023-08-07T03:20:49;15.10;99.90
8231;DHT22;4156;50.908;6.974;2023-08-07T03:23:14;15.10;99.90
8231;DHT22;4156;50.908;6.974;2023-08-07T03:25:40;15.10;99.90
8231;DHT22;4156;50.908;6.974;2023-08-07T03:28:05;15.10;99.90
8231;DHT22;4156;50.908;6.974;2023-08-07T03:30:31;15.10;99.90
8231;DHT22;4156;50.908;6.974;2023-08-07T03:32:56;15.10;99.90
8231;DHT22;4156;50.908;6.974;2023-08-07T03:35:22;15.10;99.90
8231;DHT22;4156;50.908;6.974;2023-08-07T03:37:47;15.00;99.90
8231;DHT22;4156;50.908;6.974;2023-08-07T03:40:13;15.10;99.90
8231;DHT22;4156;50.908;6.974;2023-08-07T03:42:38;15.10;99.90
8231;DHT22;4156;50.908;6.974;2023-08-07T03:45:04;15.00;99.90
8231;DHT22;4156;50.908;6.974;2023-08-07T03:47:30;15.00;99.90
8231;DHT22;4156;50.908;6.974;2023-08-07T03:49:56;15.00;99.90
8231;DHT22;4156;50.908;6.974;2023-08-07T03:52:21;15.00;99.90
8231;DHT22;4156;50.908;6.974;2023-08-07T03:54:47;15.00;99.90
8231;DHT22;4156;50.908;6.974;2023-08-07T03:57:12;15.00;99.90
8231;DHT22;4156;50.908;6.974;2023-08-07T03:59:38;15.00;99.90
8231;DHT22;4156;50.908;6.974;2023-08-07T04:02:03;15.00;99.90
8231;DHT22;4156;50.908;6.974;2023-08-07T04:04:29;15.00;99.90
8231;DHT22;4156;50.908;6.974;2023-08-07T04:06:55;15.00;99.90
8231;DHT22;4156;50.908;6.974;2023-08-07T04:09:20;15.00;99.90
8231;DHT22;4156;50.908;6.974;2023-08-07T04:11:46;15.00;99.90
8231;DHT22;4156;50.908;6.974;2023-08-07T04:14:12;15.00;99.90
8231;DHT22;4156;50.908;6.974;2023-08-07T04:16:37;15.00;99.90
8231;DHT22;4156;50.908;6.974;2023-08-07T04:19:03;14.90;99.90
8231;DHT22;4156;50.908;6.974;2023-08-07T04:21:30;14.90;99.90
8231;DHT22;4156;50.908;6.974;2023-08-07T04:23:55;14.90;99.90
8231;DHT22;4156;50.908;6.974;2023-08-07T04:26:21;14.90;99.90
8231;DHT22;4156;50.908;6.974;2023-08-07T04:28:47;14.90;99.90
8231;DHT22;4156;50.908;6.974;2023-08-07T04:31:12;14.90;99.90
8231;DHT22;4156;50.908;6.974;2023-08-07T04:33:38;15.00;99.90
8231;DHT22;4156;50.908;6.974;2023-08-07T04:36:04;15.00;99.90
8231;DHT22;4156;50.908;6.974;2023-08-07T04:38:30;15.00;99.90
8231;DHT22;4156;50.908;6.974;2023-08-07T04:40:55;15.00;99.90
8231;DHT22;4156;50.908;6.974;2023-08-07T04:43:21;15.00;99.90
8231;DHT22;4156;50.908;6.974;2023-08-07T04:45:46;14.90;99.90
8231;DHT22;4156;50.908;6.974;2023-08-07T04:48:13;14.90;99.90
8231;DHT22;4156;50.908;6.974;2023-08-07T04:50:38;14.90;99.90
8231;DHT22;4156;50.908;6.974;2023-08-07T04:53:04;14.90;99.90
8231;DHT22;4156;50.908;6.974;2023-08-07T04:55:30;14.80;99.90
8231;DHT22;4156;50.908;6.974;2023-08-07T04:57:56;14.90;99.90
8231;DHT22;4156;50.908;6.974;2023-08-07T05:00:22;14.90;99.90
8231;DHT22;4156;50.908;6.974;2023-08-07T05:02:48;15.00;99.90
8231;DHT22;4156;50.908;6.974;2023-08-07T05:05:14;15.00;99.90
8231;DHT22;4156;50.908;6.974;2023-08-07T05:07:40;14.90;99.90
8231;DHT22;4156;50.908;6.974;2023-08-07T05:10:06;14.90;99.90
8231;DHT22;4156;50.908;6.974;2023-08-07T05:12:32;14.90;99.90
8231;DHT22;4156;50.908;6.974;2023-08-07T05:14:57;14.90;99.90
8231;DHT22;4156;50.908;6.974;2023-08-07T05:17:23;15.00;99.90
8231;DHT22;4156;50.908;6.974;2023-08-07T05:19:48;14.90;99.90
8231;DHT22;4156;50.908;6.974;2023-08-07T05:22:14;15.00;99.90
8231;DHT22;4156;50.908;6.974;2023-08-07T05:24:40;14.90;99.90
8231;DHT22;4156;50.908;6.974;2023-08-07T05:27:09;14.90;99.90
8231;DHT22;4156;50.908;6.974;2023-08-07T05:29:35;14.90;99.90
8231;DHT22;4156;50.908;6.974;2023-08-07T05:32:09;14.80;99.90
8231;DHT22;4156;50.908;6.974;2023-08-07T05:34:35;14.90;99.90
8231;DHT22;4156;50.908;6.974;2023-08-07T05:37:00;14.90;99.90
8231;DHT22;4156;50.908;6.974;2023-08-07T05:39:26;14.90;99.90
8231;DHT22;4156;50.908;6.974;2023-08-07T05:41:51;14.90;99.90
8231;DHT22;4156;50.908;6.974;2023-08-07T05:44:19;14.90;99.90
8231;DHT22;4156;50.908;6.974;2023-08-07T05:46:44;15.00;99.90
8231;DHT22;4156;50.908;6.974;2023-08-07T05:49:10;15.00;99.90
8231;DHT22;4156;50.908;6.974;2023-08-07T05:51:35;15.00;99.90
8231;DHT22;4156;50.908;6.974;2023-08-07T05:54:01;15.00;99.90
8231;DHT22;4156;50.908;6.974;2023-08-07T05:56:26;15.00;99.90
8231;DHT22;4156;50.908;6.974;2023-08-07T05:58:52;15.00;99.90
8231;DHT22;4156;50.908;6.974;2023-08-07T06:01:17;15.00;99.90
8231;DHT22;4156;50.908;6.974;2023-08-07T06:03:43;15.00;99.90
8231;DHT22;4156;50.908;6.974;2023-08-07T06:06:09;15.10;99.90
8231;DHT22;4156;50.908;6.974;2023-08-07T06:08:34;15.00;99.90
8231;DHT22;4156;50.908;6.974;2023-08-07T06:11:00;15.00;99.90
8231;DHT22;4156;50.908;6.974;2023-08-07T06:13:29;15.00;99.90
8231;DHT22;4156;50.908;6.974;2023-08-07T06:15:54;15.00;99.90
8231;DHT22;4156;50.908;6.974;2023-08-07T06:18:20;15.00;99.90
8231;DHT22;4156;50.908;6.974;2023-08-07T06:20:45;15.00;99.90
8231;DHT22;4156;50.908;6.974;2023-08-07T06:23:12;14.90;99.90
8231;DHT22;4156;50.908;6.974;2023-08-07T06:25:37;14.90;99.90
8231;DHT22;4156;50.908;6.974;2023-08-07T06:28:03;14.90;99.90
8231;DHT22;4156;50.908;6.974;2023-08-07T06:30:30;14.90;99.90
8231;DHT22;4156;50.908;6.974;2023-08-07T06:32:56;14.90;99.90
8231;DHT22;4156;50.908;6.974;2023-08-07T06:35:21;14.90;99.90
8231;DHT22;4156;50.908;6.974;2023-08-07T06:37:47;14.90;99.90
8231;DHT22;4156;50.908;6.974;2023-08-07T06:40:12;15.20;99.90
8231;DHT22;4156;50.908;6.974;2023-08-07T06:42:38;14.80;99.90
8231;DHT22;4156;50.908;6.974;2023-08-07T06:45:04;14.80;99.90
8231;DHT22;4156;50.908;6.974;2023-08-07T06:47:30;14.80;99.90
8231;DHT22;4156;50.908;6.974;2023-08-07T06:49:55;14.80;99.90
8231;DHT22;4156;50.908;6.974;2023-08-07T06:52:21;14.80;99.90
8231;DHT22;4156;50.908;6.974;2023-08-07T06:54:46;14.80;99.90
8231;DHT22;4156;50.908;6.974;2023-08-07T06:57:12;14.80;99.90
8231;DHT22;4156;50.908;6.974;2023-08-07T06:59:37;14.80;99.90
8231;DHT22;4156;50.908;6.974;2023-08-07T07:02:04;14.70;99.90
8231;DHT22;4156;50.908;6.974;2023-08-07T07:04:29;14.70;99.90
8231;DHT22;4156;50.908;6.974;2023-08-07T07:06:55;14.70;99.90
8231;DHT22;4156;50.908;6.974;2023-08-07T07:09:21;14.80;99.90
8231;DHT22;4156;50.908;6.974;2023-08-07T07:11:46;14.80;99.90
8231;DHT22;4156;50.908;6.974;2023-08-07T07:14:12;14.80;99.90
8231;DHT22;4156;50.908;6.974;2023-08-07T07:16:37;14.70;99.90
8231;DHT22;4156;50.908;6.974;2023-08-07T07:19:03;14.70;99.90
8231;DHT22;4156;50.908;6.974;2023-08-07T07:21:29;14.60;99.90
8231;DHT22;4156;50.908;6.974;2023-08-07T07:23:55;14.70;99.90
8231;DHT22;4156;50.908;6.974;2023-08-07T07:26:20;14.70;99.90
8231;DHT22;4156;50.908;6.974;2023-08-07T07:28:46;14.80;99.90
8231;DHT22;4156;50.908;6.974;2023-08-07T07:31:11;14.80;99.90
8231;DHT22;4156;50.908;6.974;2023-08-07T07:33:37;14.80;99.90
8231;DHT22;4156;50.908;6.974;2023-08-07T07:36:05;14.80;99.90
8231;DHT22;4156;50.908;6.974;2023-08-07T07:38:31;14.80;99.90
8231;DHT22;4156;50.908;6.974;2023-08-07T07:40:56;14.80;99.90
8231;DHT22;4156;50.908;6.974;2023-08-07T07:43:23;14.80;99.90
8231;DHT22;4156;50.908;6.974;2023-08-07T07:45:49;14.80;99.90
8231;DHT22;4156;50.908;6.974;2023-08-07T07:48:14;14.80;99.90
8231;DHT22;4156;50.908;6.974;2023-08-07T07:50:41;14.80;99.90
8231;DHT22;4156;50.908;6.974;2023-08-07T07:53:06;14.70;99.90
8231;DHT22;4156;50.908;6.974;2023-08-07T07:55:32;14.80;99.90
8231;DHT22;4156;50.908;6.974;2023-08-07T07:57:59;14.80;99.90
8231;DHT22;4156;50.908;6.974;2023-08-07T08:00:25;14.70;99.90
8231;DHT22;4156;50.908;6.974;2023-08-07T08:02:52;14.70;99.90
8231;DHT22;4156;50.908;6.974;2023-08-07T08:05:18;14.70;99.90
8231;DHT22;4156;50.908;6.974;2023-08-07T08:07:44;14.80;99.90
8231;DHT22;4156;50.908;6.974;2023-08-07T08:10:09;14.80;99.90
8231;DHT22;4156;50.908;6.974;2023-08-07T08:12:36;14.80;99.90
8231;DHT22;4156;50.908;6.974;2023-08-07T08:15:02;14.80;99.90
8231;DHT22;4156;50.908;6.974;2023-08-07T08:17:28;14.80;99.90
8231;DHT22;4156;50.908;6.974;2023-08-07T08:19:54;14.80;99.90
8231;DHT22;4156;50.908;6.974;2023-08-07T08:22:19;14.90;99.90
8231;DHT22;4156;50.908;6.974;2023-08-07T08:24:45;14.90;99.90
8231;DHT22;4156;50.908;6.974;2023-08-07T08:27:10;14.90;99.90
8231;DHT22;4156;50.908;6.974;2023-08-07T08:29:36;14.90;99.90
8231;DHT22;4156;50.908;6.974;2023-08-07T08:32:01;15.00;99.90
8231;DHT22;4156;50.908;6.974;2023-08-07T08:34:27;14.90;99.90
8231;DHT22;4156;50.908;6.974;2023-08-07T08:36:53;15.00;99.90
8231;DHT22;4156;50.908;6.974;2023-08-07T08:39:18;15.00;99.90
8231;DHT22;4156;50.908;6.974;2023-08-07T08:41:46;15.00;99.90
8231;DHT22;4156;50.908;6.974;2023-08-07T08:44:16;15.00;99.90
8231;DHT22;4156;50.908;6.974;2023-08-07T08:46:43;15.00;99.90
8231;DHT22;4156;50.908;6.974;2023-08-07T08:49:10;15.10;99.90
8231;DHT22;4156;50.908;6.974;2023-08-07T08:51:36;15.10;99.90
8231;DHT22;4156;50.908;6.974;2023-08-07T08:54:02;15.10;99.90
8231;DHT22;4156;50.908;6.974;2023-08-07T08:56:30;15.10;99.90
8231;DHT22;4156;50.908;6.974;2023-08-07T08:58:56;15.10;99.90
8231;DHT22;4156;50.908;6.974;2023-08-07T09:01:22;15.10;99.90
8231;DHT22;4156;50.908;6.974;2023-08-07T09:03:49;15.10;99.90
8231;DHT22;4156;50.908;6.974;2023-08-07T09:06:15;15.10;99.90
8231;DHT22;4156;50.908;6.974;2023-08-07T09:08:42;15.20;99.90
8231;DHT22;4156;50.908;6.974;2023-08-07T09:11:10;15.20;99.90
8231;DHT22;4156;50.908;6.974;2023-08-07T09:13:37;15.20;99.90
8231;DHT22;4156;50.908;6.974;2023-08-07T09:16:04;15.20;99.90
8231;DHT22;4156;50.908;6.974;2023-08-07T09:18:31;15.20;99.90
8231;DHT22;4156;50.908;6.974;2023-08-07T09:20:56;15.30;99.90
8231;DHT22;4156;50.908;6.974;2023-08-07T09:23:25;15.30;99.90
8231;DHT22;4156;50.908;6.974;2023-08-07T09:26:00;15.30;99.90
8231;DHT22;4156;50.908;6.974;2023-08-07T09:28:26;15.30;99.90
8231;DHT22;4156;50.908;6.974;2023-08-07T09:30:52;15.30;99.90
8231;DHT22;4156;50.908;6.974;2023-08-07T09:33:28;15.30;99.90
8231;DHT22;4156;50.908;6.974;2023-08-07T09:35:58;15.40;99.90
8231;DHT22;4156;50.908;6.974;2023-08-07T09:38:24;15.40;99.90
8231;DHT22;4156;50.908;6.974;2023-08-07T09:40:53;15.40;99.90
8231;DHT22;4156;50.908;6.974;2023-08-07T09:43:22;15.40;99.90
8231;DHT22;4156;50.908;6.974;2023-08-07T09:45:48;15.40;99.90
8231;DHT22;4156;50.908;6.974;2023-08-07T09:48:22;15.40;99.90
8231;DHT22;4156;50.908;6.974;2023-08-07T09:50:48;15.40;99.90
8231;DHT22;4156;50.908;6.974;2023-08-07T09:53:14;15.50;99.90
8231;DHT22;4156;50.908;6.974;2023-08-07T09:55:39;15.50;99.90
8231;DHT22;4156;50.908;6.974;2023-08-07T09:58:07;15.50;99.90
8231;DHT22;4156;50.908;6.974;2023-08-07T10:00:36;15.60;99.90
8231;DHT22;4156;50.908;6.974;2023-08-07T10:03:01;15.60;99.90
8231;DHT22;4156;50.908;6.974;2023-08-07T10:05:27;15.60;99.90
8231;DHT22;4156;50.908;6.974;2023-08-07T10:07:53;15.60;99.90
8231;DHT22;4156;50.908;6.974;2023-08-07T10:10:20;15.60;99.90
8231;DHT22;4156;50.908;6.974;2023-08-07T10:12:46;15.60;99.90
8231;DHT22;4156;50.908;6.974;2023-08-07T10:15:15;15.60;99.90
8231;DHT22;4156;50.908;6.974;2023-08-07T10:17:40;15.60;99.90
8231;DHT22;4156;50.908;6.974;2023-08-07T10:20:07;15.60;99.90
8231;DHT22;4156;50.908;6.974;2023-08-07T10:22:34;15.70;99.90
8231;DHT22;4156;50.908;6.974;2023-08-07T10:25:03;15.70;99.90
8231;DHT22;4156;50.908;6.974;2023-08-07T10:27:32;15.70;99.90
8231;DHT22;4156;50.908;6.974;2023-08-07T10:30:00;15.70;99.90
8231;DHT22;4156;50.908;6.974;2023-08-07T10:32:27;15.70;99.90
8231;DHT22;4156;50.908;6.974;2023-08-07T10:34:53;15.70;99.90
8231;DHT22;4156;50.908;6.974;2023-08-07T10:40:09;15.80;99.90
8231;DHT22;4156;50.908;6.974;2023-08-07T10:45:20;15.80;99.90
8231;DHT22;4156;50.908;6.974;2023-08-07T10:48:06;15.80;99.90
8231;DHT22;4156;50.908;6.974;2023-08-07T10:50:49;15.80;99.90
8231;DHT22;4156;50.908;6.974;2023-08-07T10:53:37;15.90;99.90
8231;DHT22;4156;50.908;6.974;2023-08-07T10:56:08;15.90;99.90
8231;DHT22;4156;50.908;6.974;2023-08-07T10:58:38;15.90;99.90
8231;DHT22;4156;50.908;6.974;2023-08-07T11:01:20;15.90;99.90
8231;DHT22;4156;50.908;6.974;2023-08-07T11:03:54;16.00;99.90
8231;DHT22;4156;50.908;6.974;2023-08-07T11:06:26;16.00;99.90
8231;DHT22;4156;50.908;6.974;2023-08-07T11:08:52;16.00;99.90
8231;DHT22;4156;50.908;6.974;2023-08-07T11:11:17;16.10;99.90
8231;DHT22;4156;50.908;6.974;2023-08-07T11:13:43;16.10;99.90
8231;DHT22;4156;50.908;6.974;2023-08-07T11:16:09;16.10;99.90
8231;DHT22;4156;50.908;6.974;2023-08-07T11:18:34;16.10;99.90
8231;DHT22;4156;50.908;6.974;2023-08-07T11:21:01;16.10;99.90
8231;DHT22;4156;50.908;6.974;2023-08-07T11:23:27;16.10;99.90
8231;DHT22;4156;50.908;6.974;2023-08-07T11:25:53;16.20;99.90
8231;DHT22;4156;50.908;6.974;2023-08-07T11:28:20;16.20;99.90
8231;DHT22;4156;50.908;6.974;2023-08-07T11:30:53;16.30;99.90
8231;DHT22;4156;50.908;6.974;2023-08-07T11:33:19;16.30;99.90
8231;DHT22;4156;50.908;6.974;2023-08-07T11:35:46;16.30;99.90
8231;DHT22;4156;50.908;6.974;2023-08-07T11:38:11;16.30;99.90
8231;DHT22;4156;50.908;6.974;2023-08-07T11:40:37;16.40;99.90
8231;DHT22;4156;50.908;6.974;2023-08-07T11:43:03;16.40;99.90
8231;DHT22;4156;50.908;6.974;2023-08-07T11:45:28;16.40;99.90
8231;DHT22;4156;50.908;6.974;2023-08-07T11:47:55;16.40;99.90
8231;DHT22;4156;50.908;6.974;2023-08-07T11:50:22;16.40;99.90
8231;DHT22;4156;50.908;6.974;2023-08-07T11:52:48;16.50;99.90
8231;DHT22;4156;50.908;6.974;2023-08-07T11:55:14;16.50;99.90
8231;DHT22;4156;50.908;6.974;2023-08-07T11:57:40;16.50;99.90
8231;DHT22;4156;50.908;6.974;2023-08-07T12:00:08;16.50;99.90
8231;DHT22;4156;50.908;6.974;2023-08-07T12:02:41;16.50;99.90
8231;DHT22;4156;50.908;6.974;2023-08-07T12:05:09;16.50;99.90
8231;DHT22;4156;50.908;6.974;2023-08-07T12:07:37;16.50;99.90
8231;DHT22;4156;50.908;6.974;2023-08-07T12:10:06;16.60;99.90
8231;DHT22;4156;50.908;6.974;2023-08-07T12:12:36;16.60;99.90
8231;DHT22;4156;50.908;6.974;2023-08-07T12:15:02;16.60;99.90
8231;DHT22;4156;50.908;6.974;2023-08-07T12:17:33;16.60;99.90
8231;DHT22;4156;50.908;6.974;2023-08-07T12:19:58;16.70;99.90
8231;DHT22;4156;50.908;6.974;2023-08-07T12:22:27;16.70;99.90
8231;DHT22;4156;50.908;6.974;2023-08-07T12:24:53;16.70;99.90
8231;DHT22;4156;50.908;6.974;2023-08-07T12:27:19;16.80;99.90
8231;DHT22;4156;50.908;6.974;2023-08-07T12:29:45;16.80;99.90
8231;DHT22;4156;50.908;6.974;2023-08-07T12:32:11;16.80;99.90
8231;DHT22;4156;50.908;6.974;2023-08-07T12:34:36;16.80;99.90
8231;DHT22;4156;50.908;6.974;2023-08-07T12:37:04;16.80;99.90
8231;DHT22;4156;50.908;6.974;2023-08-07T12:39:29;16.90;99.90
8231;DHT22;4156;50.908;6.974;2023-08-07T12:41:55;16.80;99.90
8231;DHT22;4156;50.908;6.974;2023-08-07T12:44:21;16.80;99.90
8231;DHT22;4156;50.908;6.974;2023-08-07T12:46:46;16.80;99.90
8231;DHT22;4156;50.908;6.974;2023-08-07T12:49:12;16.80;99.90
8231;DHT22;4156;50.908;6.974;2023-08-07T12:51:37;16.90;99.90
8231;DHT22;4156;50.908;6.974;2023-08-07T12:54:03;16.90;99.90
8231;DHT22;4156;50.908;6.974;2023-08-07T12:56:29;17.00;99.90
8231;DHT22;4156;50.908;6.974;2023-08-07T12:58:54;16.90;99.90
8231;DHT22;4156;50.908;6.974;2023-08-07T13:01:20;17.00;99.90
8231;DHT22;4156;50.908;6.974;2023-08-07T13:03:46;17.00;99.90
8231;DHT22;4156;50.908;6.974;2023-08-07T13:06:11;17.10;99.90
8231;DHT22;4156;50.908;6.974;2023-08-07T13:08:37;17.10;99.90
8231;DHT22;4156;50.908;6.974;2023-08-07T13:11:03;17.10;99.90
8231;DHT22;4156;50.908;6.974;2023-08-07T13:13:28;17.20;99.90
8231;DHT22;4156;50.908;6.974;2023-08-07T13:15:55;17.20;99.90
8231;DHT22;4156;50.908;6.974;2023-08-07T13:18:20;17.20;99.90
8231;DHT22;4156;50.908;6.974;2023-08-07T13:20:47;17.20;99.90
8231;DHT22;4156;50.908;6.974;2023-08-07T13:23:13;17.20;99.90
8231;DHT22;4156;50.908;6.974;2023-08-07T13:25:39;17.20;99.90
8231;DHT22;4156;50.908;6.974;2023-08-07T13:28:05;17.20;99.90
8231;DHT22;4156;50.908;6.974;2023-08-07T13:30:32;17.20;99.90
8231;DHT22;4156;50.908;6.974;2023-08-07T13:32:58;17.20;99.90
8231;DHT22;4156;50.908;6.974;2023-08-07T13:35:24;17.20;99.90
8231;DHT22;4156;50.908;6.974;2023-08-07T13:37:49;17.20;99.90
8231;DHT22;4156;50.908;6.974;2023-08-07T13:40:15;17.30;99.90
8231;DHT22;4156;50.908;6.974;2023-08-07T13:42:40;17.30;99.90
8231;DHT22;4156;50.908;6.974;2023-08-07T13:45:06;17.30;99.90
8231;DHT22;4156;50.908;6.974;2023-08-07T13:47:33;17.30;99.90
8231;DHT22;4156;50.908;6.974;2023-08-07T13:49:58;17.40;99.90
8231;DHT22;4156;50.908;6.974;2023-08-07T13:52:24;17.40;99.90
8231;DHT22;4156;50.908;6.974;2023-08-07T13:54:50;17.40;99.90
8231;DHT22;4156;50.908;6.974;2023-08-07T13:57:16;17.40;99.90
8231;DHT22;4156;50.908;6.974;2023-08-07T13:59:42;17.40;99.90
8231;DHT22;4156;50.908;6.974;2023-08-07T14:02:07;17.40;99.90
8231;DHT22;4156;50.908;6.974;2023-08-07T14:04:34;17.40;99.90
8231;DHT22;4156;50.908;6.974;2023-08-07T14:06:59;17.50;99.90
8231;DHT22;4156;50.908;6.974;2023-08-07T14:09:25;17.40;99.90
8231;DHT22;4156;50.908;6.974;2023-08-07T14:11:51;17.40;99.90
8231;DHT22;4156;50.908;6.974;2023-08-07T14:14:17;17.50;99.90
8231;DHT22;4156;50.908;6.974;2023-08-07T14:16:42;17.50;99.90
8231;DHT22;4156;50.908;6.974;2023-08-07T14:19:08;17.50;99.90
8231;DHT22;4156;50.908;6.974;2023-08-07T14:21:34;17.50;99.90
8231;DHT22;4156;50.908;6.974;2023-08-07T14:23:59;17.50;99.90
8231;DHT22;4156;50.908;6.974;2023-08-07T14:26:25;17.50;99.90
8231;DHT22;4156;50.908;6.974;2023-08-07T14:28:51;17.50;99.90
8231;DHT22;4156;50.908;6.974;2023-08-07T14:31:16;17.50;99.90
8231;DHT22;4156;50.908;6.974;2023-08-07T14:33:42;17.50;99.90
8231;DHT22;4156;50.908;6.974;2023-08-07T14:36:07;17.60;99.90
8231;DHT22;4156;50.908;6.974;2023-08-07T14:38:33;17.50;99.90
8231;DHT22;4156;50.908;6.974;2023-08-07T14:40:58;17.50;99.90
8231;DHT22;4156;50.908;6.974;2023-08-07T14:43:30;17.60;99.90
8231;DHT22;4156;50.908;6.974;2023-08-07T14:45:56;17.60;99.90
8231;DHT22;4156;50.908;6.974;2023-08-07T14:48:22;17.60;99.90
8231;DHT22;4156;50.908;6.974;2023-08-07T14:50:48;17.60;99.90
8231;DHT22;4156;50.908;6.974;2023-08-07T14:53:13;17.60;99.90
8231;DHT22;4156;50.908;6.974;2023-08-07T14:55:39;17.60;99.90
8231;DHT22;4156;50.908;6.974;2023-08-07T14:58:04;17.60;99.90
8231;DHT22;4156;50.908;6.974;2023-08-07T15:00:30;17.60;99.90
8231;DHT22;4156;50.908;6.974;2023-08-07T15:02:56;17.60;99.90
8231;DHT22;4156;50.908;6.974;2023-08-07T15:05:23;17.60;99.90
8231;DHT22;4156;50.908;6.974;2023-08-07T15:07:48;17.70;99.90
8231;DHT22;4156;50.908;6.974;2023-08-07T15:10:14;17.70;99.90
8231;DHT22;4156;50.908;6.974;2023-08-07T15:12:40;17.70;99.90
8231;DHT22;4156;50.908;6.974;2023-08-07T15:15:05;17.80;99.90
8231;DHT22;4156;50.908;6.974;2023-08-07T15:17:31;17.80;99.90
8231;DHT22;4156;50.908;6.974;2023-08-07T15:19:57;17.80;99.90
8231;DHT22;4156;50.908;6.974;2023-08-07T15:22:23;17.80;99.90
8231;DHT22;4156;50.908;6.974;2023-08-07T15:24:48;17.80;99.90
8231;DHT22;4156;50.908;6.974;2023-08-07T15:27:14;17.90;99.90
8231;DHT22;4156;50.908;6.974;2023-08-07T15:29:39;17.90;99.90
8231;DHT22;4156;50.908;6.974;2023-08-07T15:32:07;17.90;99.90
8231;DHT22;4156;50.908;6.974;2023-08-07T15:34:33;17.90;99.90
8231;DHT22;4156;50.908;6.974;2023-08-07T15:36:59;17.90;99.90
8231;DHT22;4156;50.908;6.974;2023-08-07T15:39:24;17.90;99.90
8231;DHT22;4156;50.908;6.974;2023-08-07T15:41:50;17.90;99.90
8231;DHT22;4156;50.908;6.974;2023-08-07T15:44:15;18.00;99.90
8231;DHT22;4156;50.908;6.974;2023-08-07T15:46:41;18.00;99.90
8231;DHT22;4156;50.908;6.974;2023-08-07T15:49:06;18.00;99.90
8231;DHT22;4156;50.908;6.974;2023-08-07T15:51:32;18.00;99.90
8231;DHT22;4156;50.908;6.974;2023-08-07T15:53:57;18.00;99.90
8231;DHT22;4156;50.908;6.974;2023-08-07T15:56:24;18.10;99.90
8231;DHT22;4156;50.908;6.974;2023-08-07T15:58:49;18.10;99.90
8231;DHT22;4156;50.908;6.974;2023-08-07T16:01:16;18.10;99.90
8231;DHT22;4156;50.908;6.974;2023-08-07T16:03:41;18.10;99.90
8231;DHT22;4156;50.908;6.974;2023-08-07T16:06:07;18.10;99.90